Terminal Aerodrome Forecast
Issued by NWS

Home | Current Version | Previous Version | Text Only | Print | Product List | Glossary On
Versions: 1 2 3 4 5 6 7 8 9 10 11 12 13 14 15 16 17 18 19 20 21 22 23 24
000
FTUS43 KDTX 262241 AAC
TAFPTK
TAF AMD
KPTK 262241Z 2623/2718 14006KT 3SM -SHRA BR OVC004
     FM270100 16008KT 6SM -SHRA BR BKN015 OVC025
     FM270200 18005KT 5SM -SHRA BR OVC012
     FM270500 21005KT 4SM BR BKN008 OVC050
     FM271500 24008KT P6SM BKN015 OVC050=

USA.gov is the U.S. government's official web portal to all federal, state and local government web resources and services.